Terminal Aerodrome Forecast
Issued by NWS

Home | Current Version | Previous Version | Text Only | Print | Product List | Glossary On
Versions: 1 2 3 4 5 6 7 8 9 10 11 12 13 14 15 16 17 18 19 20 21 22 23 24 25 26 27 28 29 30 31 32 33 34 35 36 37 38 39 40 41
000
FTUS43 KMKX 032328
TAFENW
TAF
KENW 032328Z 0400/0424 23010G18KT 5SM -RA BR SCT025 OVC050
      TEMPO 0400/0401 3SM -RA BR BKN025
     FM040130 19011KT 6SM BR VCSH SCT035 BKN080
     FM040300 17008KT P6SM SCT080 BKN200
     FM040600 18009KT 5SM BR VCTS SCT040 BKN120CB
     FM040800 20008KT 6SM -SHRA BR VCTS SCT040CB OVC080
      TEMPO 0408/0412 4SM -TSRA BR BKN040CB
     FM041200 22008KT 3SM SHRA BR SCT030 OVC050
     FM041500 28007KT 3SM SHRA BR OVC025
     FM041700 35006KT 5SM BR SCT025 BKN040
     FM041900 02007KT P6SM OVC040=

USA.gov is the U.S. government's official web portal to all federal, state and local government web resources and services.